Terminal Aerodrome Forecast
Issued by NWS

Home | Current Version | Previous Version | Text Only | Print | Product List | Glossary On
Versions: 1 2 3 4 5 6 7 8 9 10 11 12 13 14 15 16 17 18 19 20
833
FTUS46 KEKA 130708 AAA
TAFCEC
TAF AMD
KCEC 130708Z 1307/1406 VRB03KT 1/2SM FG VV003
     FM131000 00000KT 2SM BR OVC002
     FM131600 VRB03KT 3SM BR FEW250
     FM132000 26007KT P6SM SCT250
     FM140100 16006KT P6SM SCT100 BKN250=

USA.gov is the U.S. government's official web portal to all federal, state and local government web resources and services.